Skip Navigation LinksHome page > Weather > Current weather Skip Navigation Links

Current Weather

New Tokyo International (Narita), Tokyo

For information only: do not use for flight planning or navigation.
Latest weather
Observation time Monday, July 25, 2016 2:30 PM JST
Local time Monday, July 25, 2016 3:06 PM JST
Flight conditions Low Instrument Meteorological Conditions
Winds
Wind direction East-Northeast (70°)
Winds variable from 10° to 100°
Wind speed 9 mph
Visibility 6.2 mi.
Sky condition
Ceiling 0 ft. broken clouds
Cloud layer broken clouds 0 ft.
Cloud layer few clouds 2,000 ft.
Temperature 81°F
Dewpoint 66°F
Altimeter 29.91 in.Hg
Derived measurements
Relative humidity 62%
Heat index 83°F
Density altitude 1835 ft.
Remarks
No significant changes expected in the next two hours.
METAR RJAA 250530Z 07008KT 010V100 9999 FEW020 BKN/// 27/19 Q1013 NOSIG RMK 1CU020 A2992

Settings

Location code

InnerDrive.Weather 4.0.5722.1 Release CLR 4.0.30319.34209
Copyright ©2015 Inner Drive Technology. All rights reserved. Portions Copyright ©1986-2015 David Braverman.

Find weather

Site navigation


Skip Navigation Links

Place info

Page info

PayPal - The safer, easier way to pay online!

Return home.

Copyright ©2016 Inner Drive Technology. Purveyors of fine, hand-crafted computer software. Page printed 2016-07-25T06:06:18 UTC.